Time;durP1;ratioP1;P1;durP2;ratioP2;P2;SDS_P1;SDS_P2;PMS_P1;PMS_P2;Temp;Humidity;BMP_temperature;BMP_pressure;BME280_temperature;BME280_humidity;BME280_pressure;Samples;Min_cycle;Max_cycle;Signal;HPM_P1;HPM_P2
2023/09/04 00:00:58;;;;;;;1.90;0.80;;;19.40;99.90;;;;;;4957878;29;20192;-91
2023/09/04 00:03:29;;;;;;;3.50;0.70;;;19.50;99.90;;;;;;4964672;28;20252;-90
2023/09/04 00:06:01;;;;;;;2.42;0.70;;;19.60;99.90;;;;;;4950854;29;20254;-90
2023/09/04 00:08:32;;;;;;;4.10;0.80;;;19.60;99.90;;;;;;4961849;29;20208;-90
2023/09/04 00:11:05;;;;;;;4.95;0.88;;;19.70;99.90;;;;;;4943689;29;20204;-90
2023/09/04 00:13:37;;;;;;;2.95;0.70;;;19.70;99.90;;;;;;4955722;29;20685;-89
2023/09/04 00:16:08;;;;;;;1.90;0.70;;;19.70;99.90;;;;;;4962317;28;20276;-90
2023/09/04 00:18:40;;;;;;;5.65;0.80;;;19.80;99.90;;;;;;4978687;28;20195;-89
2023/09/04 00:21:11;;;;;;;3.15;0.90;;;19.90;99.90;;;;;;4974730;28;20274;-89
2023/09/04 00:23:41;;;;;;;3.90;0.85;;;19.90;99.90;;;;;;4973657;28;20199;-86
2023/09/04 00:26:16;;;;;;;3.75;0.80;;;20.00;99.90;;;;;;4958558;28;20196;-87
2023/09/04 00:28:47;;;;;;;2.83;0.70;;;20.10;99.90;;;;;;4954445;28;20702;-87
2023/09/04 00:31:18;;;;;;;4.60;0.75;;;20.10;99.90;;;;;;4954569;29;20196;-89
2023/09/04 00:33:49;;;;;;;4.22;0.95;;;20.20;99.90;;;;;;4954898;29;20196;-89
2023/09/04 00:36:19;;;;;;;3.40;1.05;;;20.30;99.90;;;;;;4955213;29;20207;-91
2023/09/04 00:38:51;;;;;;;7.82;1.13;;;20.30;99.90;;;;;;4965957;28;20595;-92
2023/09/04 00:41:24;;;;;;;3.97;0.90;;;20.30;99.90;;;;;;4962561;28;20203;-92
2023/09/04 00:43:55;;;;;;;2.97;0.90;;;20.40;99.90;;;;;;4945906;28;20199;-92
2023/09/04 00:46:27;;;;;;;3.58;1.02;;;20.50;99.90;;;;;;4974850;28;20199;-93
2023/09/04 00:48:58;;;;;;;4.72;1.00;;;20.50;99.90;;;;;;4974417;28;20195;-89
2023/09/04 00:51:29;;;;;;;3.75;0.82;;;20.50;99.90;;;;;;4963886;28;20220;-90
2023/09/04 00:54:01;;;;;;;3.70;0.88;;;20.60;99.90;;;;;;4943160;28;20226;-92
2023/09/04 00:56:36;;;;;;;4.45;0.77;;;20.70;99.90;;;;;;4957573;28;20200;-91
2023/09/04 00:59:07;;;;;;;8.90;1.05;;;20.70;99.90;;;;;;4937832;29;20196;-90
2023/09/04 01:01:39;;;;;;;3.88;0.90;;;20.80;99.90;;;;;;4942457;28;20203;-90
2023/09/04 01:04:10;;;;;;;6.65;1.00;;;20.90;99.90;;;;;;4973647;28;20595;-88
2023/09/04 01:06:40;;;;;;;3.45;0.95;;;20.80;99.90;;;;;;4974934;28;20198;-87
2023/09/04 01:09:11;;;;;;;3.05;0.70;;;20.80;99.90;;;;;;4972033;28;20196;-90
2023/09/04 01:11:50;;;;;;;1.73;0.77;;;20.70;99.90;;;;;;4958930;28;20203;-89
2023/09/04 01:14:23;;;;;;;3.40;0.80;;;20.90;99.90;;;;;;4957060;28;20230;-88
2023/09/04 01:16:55;;;;;;;5.05;1.10;;;20.80;99.90;;;;;;4953857;29;20192;-88
2023/09/04 01:19:26;;;;;;;2.58;1.08;;;20.90;99.90;;;;;;4966900;28;20211;-91
2023/09/04 01:22:00;;;;;;;3.33;0.80;;;20.90;99.90;;;;;;4974213;28;20624;-89
2023/09/04 01:24:31;;;;;;;4.35;1.10;;;21.10;99.90;;;;;;4950017;28;20224;-88
2023/09/04 01:27:09;;;;;;;5.45;0.90;;;21.10;99.90;;;;;;4957456;29;20199;-88
2023/09/04 01:29:43;;;;;;;3.83;0.95;;;21.20;99.90;;;;;;4958310;29;20219;-90
2023/09/04 01:32:20;;;;;;;4.75;1.05;;;21.20;99.90;;;;;;4958122;29;20212;-92
2023/09/04 01:34:53;;;;;;;3.15;0.82;;;21.20;99.90;;;;;;4941899;29;20303;-91
2023/09/04 01:37:27;;;;;;;4.38;0.88;;;21.10;99.90;;;;;;4961071;29;20270;-91
2023/09/04 01:39:59;;;;;;;4.03;0.93;;;21.30;99.90;;;;;;4978762;28;20202;-91
2023/09/04 01:42:30;;;;;;;3.88;0.98;;;21.30;99.90;;;;;;4981019;28;20188;-90
2023/09/04 01:45:02;;;;;;;2.60;1.10;;;21.30;99.90;;;;;;4976730;28;20254;-89
2023/09/04 01:47:33;;;;;;;3.78;0.85;;;21.30;99.90;;;;;;4959321;29;20200;-89
2023/09/04 01:50:04;;;;;;;3.53;0.90;;;21.40;99.90;;;;;;4956039;29;20590;-86
2023/09/04 01:52:37;;;;;;;3.67;0.80;;;21.50;99.90;;;;;;4958339;29;20218;-89
2023/09/04 01:55:08;;;;;;;2.42;0.90;;;21.30;99.90;;;;;;4962512;28;20227;-89
2023/09/04 01:57:39;;;;;;;3.72;1.05;;;21.40;99.90;;;;;;4977094;28;20207;-88
2023/09/04 02:00:11;;;;;;;7.18;1.20;;;21.60;99.90;;;;;;4976916;28;20647;-89
2023/09/04 02:02:41;;;;;;;2.83;1.00;;;21.70;99.90;;;;;;4983713;28;20188;-89
2023/09/04 02:05:12;;;;;;;5.43;1.20;;;21.70;99.90;;;;;;4968235;28;20239;-88
2023/09/04 02:07:49;;;;;;;5.13;1.13;;;21.90;99.90;;;;;;4958928;29;20203;-89
2023/09/04 02:10:22;;;;;;;3.05;1.00;;;22.00;99.90;;;;;;4971176;28;20183;-88
2023/09/04 02:12:53;;;;;;;4.72;1.17;;;22.00;99.90;;;;;;4990051;28;20235;-88
2023/09/04 02:15:24;;;;;;;4.05;1.10;;;22.10;99.90;;;;;;4963910;28;20223;-88
2023/09/04 02:17:55;;;;;;;3.45;1.05;;;22.10;99.90;;;;;;4957910;29;20212;-88
2023/09/04 02:20:26;;;;;;;4.00;1.10;;;22.10;99.90;;;;;;4960263;29;20192;-88
2023/09/04 02:22:59;;;;;;;5.28;1.02;;;22.20;99.90;;;;;;4958992;29;20202;-89
2023/09/04 02:25:31;;;;;;;2.83;0.80;;;22.20;99.90;;;;;;4963110;28;20695;-89
2023/09/04 02:28:01;;;;;;;4.05;1.00;;;22.10;99.90;;;;;;4957614;28;20195;-87
2023/09/04 02:30:32;;;;;;;5.45;1.00;;;22.10;99.90;;;;;;4976587;28;20215;-87
2023/09/04 02:33:03;;;;;;;3.30;1.00;;;21.80;99.90;;;;;;4959485;29;20193;-87
2023/09/04 02:35:35;;;;;;;3.20;1.02;;;21.70;99.90;;;;;;4959517;28;20202;-88
2023/09/04 02:38:10;;;;;;;3.15;1.00;;;21.90;99.90;;;;;;4942946;29;20191;-88
2023/09/04 02:40:40;;;;;;;5.07;1.27;;;21.80;99.90;;;;;;4961676;28;20242;-87
2023/09/04 02:43:12;;;;;;;5.38;1.40;;;21.70;99.90;;;;;;4957207;29;20195;-89
2023/09/04 02:45:44;;;;;;;7.53;1.30;;;21.70;99.90;;;;;;4955845;29;20236;-87
2023/09/04 02:48:15;;;;;;;6.30;1.27;;;21.60;99.90;;;;;;4956148;29;20605;-89
2023/09/04 02:50:46;;;;;;;3.95;1.40;;;21.60;99.90;;;;;;4959701;29;20200;-87
2023/09/04 02:53:19;;;;;;;3.17;1.15;;;21.70;99.90;;;;;;4961614;29;20200;-90
2023/09/04 02:55:51;;;;;;;7.65;1.27;;;21.80;99.90;;;;;;4964457;28;20250;-88
2023/09/04 02:58:22;;;;;;;2.80;1.13;;;22.10;99.90;;;;;;4958593;29;20196;-88
2023/09/04 03:00:54;;;;;;;4.85;1.40;;;22.20;99.90;;;;;;4965064;28;20210;-89
2023/09/04 03:03:25;;;;;;;8.90;1.48;;;22.40;99.90;;;;;;4959759;28;20196;-90
2023/09/04 03:05:55;;;;;;;4.75;1.42;;;22.40;99.90;;;;;;4957020;29;20223;-90
2023/09/04 03:08:28;;;;;;;3.05;1.33;;;22.30;99.90;;;;;;4964782;28;20224;-90
2023/09/04 03:11:00;;;;;;;6.28;1.40;;;22.30;99.90;;;;;;4976592;28;20570;-88
2023/09/04 03:13:32;;;;;;;5.07;1.38;;;22.30;99.90;;;;;;4997494;28;20175;-90
2023/09/04 03:16:03;;;;;;;3.88;1.35;;;22.20;99.90;;;;;;4973745;28;20234;-90
2023/09/04 03:18:34;;;;;;;4.03;1.20;;;22.20;99.90;;;;;;4981844;28;20196;-90
2023/09/04 03:21:05;;;;;;;7.55;1.52;;;22.10;99.90;;;;;;4956332;29;20188;-91
2023/09/04 03:23:38;;;;;;;6.70;1.60;;;22.10;99.90;;;;;;4984358;28;20199;-91
2023/09/04 03:26:09;;;;;;;8.18;1.70;;;22.20;99.90;;;;;;4953095;28;20227;-92
2023/09/04 03:28:42;;;;;;;2.78;1.30;;;22.30;99.90;;;;;;4957125;29;20617;-90
2023/09/04 03:31:16;;;;;;;5.88;1.50;;;22.30;99.90;;;;;;4961148;29;20195;-89
2023/09/04 03:33:47;;;;;;;8.27;1.48;;;22.50;99.90;;;;;;4968689;29;20187;-91
2023/09/04 03:36:18;;;;;;;5.88;1.35;;;22.40;99.90;;;;;;4966955;29;20215;-91
2023/09/04 03:38:52;;;;;;;6.35;1.48;;;22.20;99.90;;;;;;4959102;28;20212;-92
2023/09/04 03:41:23;;;;;;;3.83;1.38;;;22.00;99.90;;;;;;4956998;29;20204;-91
2023/09/04 03:43:55;;;;;;;10.98;1.20;;;21.90;99.90;;;;;;4963442;29;20189;-93
2023/09/04 03:46:27;;;;;;;5.97;1.50;;;21.80;99.90;;;;;;4951112;29;20228;-91
2023/09/04 03:48:58;;;;;;;5.88;1.42;;;21.90;99.90;;;;;;4957947;29;20656;-92
2023/09/04 03:51:29;;;;;;;6.03;1.38;;;21.90;99.90;;;;;;4956538;28;20574;-91
2023/09/04 03:54:03;;;;;;;2.58;1.20;;;21.90;99.90;;;;;;4935795;29;20233;-91
2023/09/04 03:56:35;;;;;;;4.93;1.40;;;22.00;99.90;;;;;;4942288;29;20197;-90
2023/09/04 03:59:06;;;;;;;4.82;1.73;;;21.90;99.90;;;;;;4936344;29;20200;-90
2023/09/04 04:01:37;;;;;;;7.38;1.27;;;21.80;99.90;;;;;;4946156;29;20199;-89
2023/09/04 04:04:09;;;;;;;7.55;1.73;;;21.80;99.90;;;;;;4941561;29;20196;-88
2023/09/04 04:06:39;;;;;;;4.75;1.30;;;21.70;99.90;;;;;;4957690;28;20323;-89
2023/09/04 04:09:14;;;;;;;7.53;1.83;;;21.60;99.90;;;;;;4947365;28;20203;-89
2023/09/04 04:11:46;;;;;;;6.78;1.50;;;21.60;99.90;;;;;;4947064;28;20204;-89
2023/09/04 04:14:17;;;;;;;6.47;1.50;;;21.60;99.90;;;;;;4934821;29;20648;-86
2023/09/04 04:16:48;;;;;;;5.13;1.50;;;21.50;99.90;;;;;;4952384;28;20197;-88
2023/09/04 04:19:20;;;;;;;4.63;1.30;;;21.50;99.90;;;;;;4968435;28;21005;-88
2023/09/04 04:21:51;;;;;;;6.40;1.50;;;21.50;99.90;;;;;;4954914;29;20223;-89
2023/09/04 04:24:24;;;;;;;5.03;1.35;;;21.40;99.90;;;;;;4935490;29;20200;-89
2023/09/04 04:26:55;;;;;;;6.20;1.50;;;21.30;99.90;;;;;;4935775;29;20223;-88
2023/09/04 04:29:26;;;;;;;5.47;1.58;;;21.30;99.90;;;;;;4935693;29;20575;-87
2023/09/04 04:31:57;;;;;;;6.63;1.40;;;21.20;99.90;;;;;;4936062;29;20200;-88
2023/09/04 04:34:27;;;;;;;7.75;1.73;;;21.20;99.90;;;;;;4936140;29;20211;-88
2023/09/04 04:36:59;;;;;;;5.15;1.40;;;21.30;99.90;;;;;;4936376;29;20313;-90
2023/09/04 04:39:33;;;;;;;7.07;1.80;;;21.30;99.90;;;;;;4934910;29;20211;-87
2023/09/04 04:42:04;;;;;;;4.30;1.45;;;21.30;99.90;;;;;;4952915;29;20672;-89
2023/09/04 04:44:35;;;;;;;6.07;1.58;;;21.30;99.90;;;;;;4954452;29;20272;-89
2023/09/04 04:47:06;;;;;;;5.63;2.00;;;21.30;99.90;;;;;;4953984;29;20222;-89
2023/09/04 04:49:37;;;;;;;6.22;1.60;;;21.20;99.90;;;;;;4937072;29;20235;-90
2023/09/04 04:52:09;;;;;;;7.75;1.80;;;21.10;99.90;;;;;;4954481;29;20193;-90
2023/09/04 04:54:42;;;;;;;7.47;1.75;;;21.10;99.90;;;;;;4954138;29;20224;-89
2023/09/04 04:57:12;;;;;;;7.82;1.65;;;21.10;99.90;;;;;;4936192;29;20236;-89
2023/09/04 04:59:44;;;;;;;4.93;1.50;;;21.10;99.90;;;;;;4939967;29;20258;-92
2023/09/04 05:02:16;;;;;;;5.88;1.50;;;21.10;99.90;;;;;;4954439;29;20192;-90
2023/09/04 05:04:48;;;;;;;6.00;1.40;;;21.10;99.90;;;;;;4954691;29;20223;-91
2023/09/04 05:07:19;;;;;;;6.88;1.55;;;21.00;99.90;;;;;;4954407;29;20289;-90
2023/09/04 05:09:56;;;;;;;5.57;1.88;;;20.90;99.90;;;;;;4942388;29;20291;-91
2023/09/04 05:12:26;;;;;;;7.45;1.75;;;20.90;99.90;;;;;;4945389;29;20208;-89
2023/09/04 05:14:57;;;;;;;11.25;1.90;;;20.80;99.90;;;;;;4935287;29;20240;-91
2023/09/04 05:17:29;;;;;;;7.13;1.77;;;20.80;99.90;;;;;;4945018;28;20200;-88
2023/09/04 05:20:00;;;;;;;9.93;1.70;;;20.80;99.90;;;;;;4972273;28;20235;-91
2023/09/04 05:22:32;;;;;;;7.18;1.70;;;20.80;99.90;;;;;;4947015;29;20593;-90
2023/09/04 05:25:05;;;;;;;6.50;1.60;;;20.80;99.90;;;;;;4950199;29;20192;-88
2023/09/04 05:27:40;;;;;;;6.30;1.80;;;20.70;99.90;;;;;;4966481;29;20216;-90
2023/09/04 05:30:15;;;;;;;5.60;1.60;;;20.80;99.90;;;;;;4951607;29;20203;-92
2023/09/04 05:32:47;;;;;;;8.30;1.80;;;20.80;99.90;;;;;;4927530;29;20204;-91
2023/09/04 05:35:17;;;;;;;6.20;1.70;;;20.80;99.90;;;;;;4936550;29;20228;-92
2023/09/04 05:37:48;;;;;;;6.15;1.60;;;20.80;99.90;;;;;;4942391;29;20206;-90
2023/09/04 05:40:23;;;;;;;4.25;1.40;;;20.80;99.90;;;;;;4944544;29;20200;-91
2023/09/04 05:42:53;;;;;;;6.82;1.90;;;20.80;99.90;;;;;;4959069;29;20187;-88
2023/09/04 05:45:34;;;;;;;9.27;2.00;;;20.90;99.90;;;;;;4945002;29;20216;-91
2023/09/04 05:48:06;;;;;;;5.10;2.17;;;20.90;99.90;;;;;;4937265;29;20212;-90
2023/09/04 05:50:37;;;;;;;5.88;1.70;;;21.00;99.90;;;;;;4937825;29;20575;-90
2023/09/04 05:53:08;;;;;;;4.72;1.60;;;21.00;99.90;;;;;;4936861;29;20275;-92
2023/09/04 05:55:43;;;;;;;5.68;1.50;;;21.00;99.90;;;;;;4944724;28;20704;-90
2023/09/04 05:58:14;;;;;;;6.88;1.88;;;21.00;99.90;;;;;;4937183;29;20200;-92
2023/09/04 06:00:45;;;;;;;5.57;1.52;;;21.00;99.90;;;;;;4938216;29;20190;-92
2023/09/04 06:03:16;;;;;;;9.05;1.70;;;21.00;99.90;;;;;;4936698;29;20222;-91
2023/09/04 06:05:50;;;;;;;5.82;1.50;;;21.00;99.90;;;;;;4941410;29;20196;-93
2023/09/04 06:08:30;;;;;;;6.00;1.50;;;21.10;99.90;;;;;;4940646;29;20189;-90
2023/09/04 06:11:05;;;;;;;5.22;1.35;;;21.20;99.90;;;;;;4932861;29;20228;-88
2023/09/04 06:13:37;;;;;;;4.22;1.58;;;21.30;99.90;;;;;;4943697;29;20227;-89
2023/09/04 06:16:08;;;;;;;6.53;1.50;;;21.30;99.90;;;;;;4932524;29;20218;-87
2023/09/04 06:18:38;;;;;;;5.32;1.20;;;21.40;99.90;;;;;;4967923;29;20263;-87
2023/09/04 06:21:09;;;;;;;9.60;1.50;;;21.40;99.90;;;;;;4972836;29;20204;-90
2023/09/04 06:23:41;;;;;;;8.40;1.40;;;21.40;99.90;;;;;;4957525;28;20188;-92
2023/09/04 06:26:15;;;;;;;8.35;1.80;;;21.40;99.90;;;;;;4936261;29;20220;-92
2023/09/04 06:28:46;;;;;;;7.85;1.63;;;21.20;99.90;;;;;;4921759;29;20694;-87
2023/09/04 06:31:16;;;;;;;8.23;1.50;;;21.20;99.90;;;;;;4938275;29;20193;-92
2023/09/04 06:33:47;;;;;;;4.07;1.23;;;21.20;99.90;;;;;;4938276;29;20211;-91
2023/09/04 06:36:18;;;;;;;6.57;1.42;;;21.30;99.90;;;;;;4938541;29;20200;-92
2023/09/04 06:38:49;;;;;;;5.38;1.40;;;21.20;99.90;;;;;;4938806;29;20205;-86
2023/09/04 06:41:24;;;;;;;5.50;1.50;;;21.10;99.90;;;;;;4946717;29;20211;-91
2023/09/04 06:43:55;;;;;;;4.32;1.25;;;21.10;99.90;;;;;;4921851;29;20196;-91
2023/09/04 06:46:27;;;;;;;7.97;1.70;;;21.00;99.90;;;;;;4920981;29;20315;-91
2023/09/04 06:48:57;;;;;;;7.63;1.52;;;20.90;99.90;;;;;;4940182;29;20185;-91
2023/09/04 06:51:29;;;;;;;6.15;1.50;;;20.80;99.90;;;;;;4937721;29;20236;-88
2023/09/04 06:54:00;;;;;;;6.35;1.80;;;20.70;99.90;;;;;;4947058;29;20232;-90
2023/09/04 06:56:33;;;;;;;6.78;1.67;;;20.60;99.90;;;;;;4956601;29;20211;-89
2023/09/04 06:59:04;;;;;;;6.18;1.70;;;20.50;99.90;;;;;;4938019;29;20193;-91
2023/09/04 07:01:35;;;;;;;9.88;1.50;;;20.50;99.90;;;;;;4938719;29;20220;-92
2023/09/04 07:04:06;;;;;;;10.02;1.88;;;20.40;99.90;;;;;;4937329;29;20672;-91
2023/09/04 07:06:37;;;;;;;6.50;1.70;;;20.30;99.90;;;;;;4938505;29;20228;-93
2023/09/04 07:09:08;;;;;;;7.35;1.67;;;20.20;99.90;;;;;;4945200;29;20205;-91
2023/09/04 07:11:42;;;;;;;7.05;1.98;;;20.20;99.90;;;;;;4956452;29;20196;-92
2023/09/04 07:14:13;;;;;;;4.53;1.80;;;20.10;99.90;;;;;;4949562;29;20200;-90
2023/09/04 07:16:44;;;;;;;5.00;1.58;;;20.10;99.90;;;;;;4963274;28;20199;-86
2023/09/04 07:19:15;;;;;;;8.30;1.83;;;20.00;99.90;;;;;;4944448;29;20189;-89
2023/09/04 07:21:46;;;;;;;6.95;1.80;;;20.00;99.90;;;;;;4942288;29;20208;-87
2023/09/04 07:24:17;;;;;;;9.25;1.70;;;19.90;99.90;;;;;;4940323;29;20580;-90
2023/09/04 07:26:50;;;;;;;9.65;2.05;;;19.90;99.90;;;;;;4950039;28;20784;-89
2023/09/04 07:29:21;;;;;;;7.65;2.08;;;19.80;99.90;;;;;;4937954;29;20196;-88
2023/09/04 07:31:53;;;;;;;7.80;1.80;;;19.80;99.90;;;;;;4937263;29;20219;-89
2023/09/04 07:34:25;;;;;;;6.13;1.50;;;19.80;99.90;;;;;;4955172;29;20620;-87
2023/09/04 07:36:55;;;;;;;8.40;1.88;;;19.70;99.90;;;;;;4953906;29;20195;-87
2023/09/04 07:39:26;;;;;;;9.77;1.77;;;19.60;99.90;;;;;;4935906;29;20240;-87
2023/09/04 07:42:01;;;;;;;7.45;1.95;;;19.60;99.90;;;;;;4938261;29;20200;-88
2023/09/04 07:44:31;;;;;;;9.02;2.25;;;19.50;99.90;;;;;;4936173;29;20667;-85
2023/09/04 07:47:02;;;;;;;7.25;2.00;;;19.60;99.90;;;;;;4936724;29;20751;-85
2023/09/04 07:49:33;;;;;;;9.30;2.53;;;19.50;99.90;;;;;;4940680;29;20196;-86
2023/09/04 07:52:03;;;;;;;6.15;1.80;;;19.50;99.90;;;;;;4939201;29;20691;-86
2023/09/04 07:54:34;;;;;;;10.55;2.00;;;19.50;99.90;;;;;;4934338;29;20228;-86
2023/09/04 07:57:07;;;;;;;7.82;1.92;;;19.40;99.90;;;;;;4952937;29;20223;-86
2023/09/04 07:59:38;;;;;;;9.43;2.30;;;19.40;99.90;;;;;;4953870;29;20195;-85
2023/09/04 08:02:09;;;;;;;13.00;2.78;;;19.40;99.90;;;;;;4945864;29;20189;-86
2023/09/04 08:04:39;;;;;;;12.57;2.40;;;19.30;99.90;;;;;;4937065;29;20193;-86
2023/09/04 08:07:10;;;;;;;9.43;2.10;;;19.30;99.90;;;;;;4938176;29;20307;-86
2023/09/04 08:09:41;;;;;;;11.43;2.35;;;19.20;99.90;;;;;;4937673;29;20196;-85
2023/09/04 08:12:15;;;;;;;7.13;1.92;;;19.20;99.90;;;;;;4956606;29;20243;-86
2023/09/04 08:14:47;;;;;;;10.30;2.08;;;19.20;99.90;;;;;;4957068;29;20234;-85
2023/09/04 08:17:18;;;;;;;9.48;1.85;;;19.20;99.90;;;;;;4949816;28;20605;-85
2023/09/04 08:19:49;;;;;;;10.88;2.08;;;19.20;99.90;;;;;;4954033;28;20201;-87
2023/09/04 08:22:20;;;;;;;9.43;1.83;;;19.20;99.90;;;;;;4939491;28;20192;-88
2023/09/04 08:24:51;;;;;;;8.70;2.00;;;19.20;99.90;;;;;;4955917;29;20667;-84
2023/09/04 08:27:26;;;;;;;7.78;1.70;;;19.20;99.90;;;;;;4951295;29;20226;-85
2023/09/04 08:29:57;;;;;;;12.05;2.47;;;19.20;99.90;;;;;;4957824;29;20207;-85
2023/09/04 08:32:28;;;;;;;14.23;2.60;;;19.20;99.90;;;;;;4954618;28;20567;-84
2023/09/04 08:34:59;;;;;;;9.30;2.05;;;19.20;99.90;;;;;;4938190;29;20200;-85
2023/09/04 08:37:29;;;;;;;10.18;2.40;;;19.20;99.90;;;;;;4938625;29;20680;-86
2023/09/04 08:40:01;;;;;;;13.27;2.83;;;19.20;99.90;;;;;;4939032;29;20193;-86
2023/09/04 08:42:35;;;;;;;10.00;2.38;;;19.20;99.90;;;;;;4937131;29;20193;-85
2023/09/04 08:45:06;;;;;;;10.73;2.67;;;19.20;99.90;;;;;;4937991;29;20184;-86
2023/09/04 08:47:42;;;;;;;13.73;3.13;;;19.20;99.90;;;;;;4935083;29;20220;-85
2023/09/04 08:50:13;;;;;;;11.48;3.03;;;19.20;99.90;;;;;;4935334;29;20207;-86
2023/09/04 08:52:48;;;;;;;11.00;3.00;;;19.20;99.90;;;;;;4943224;29;20196;-86
2023/09/04 08:55:21;;;;;;;12.60;2.83;;;19.20;99.90;;;;;;4948428;28;20331;-87
2023/09/04 08:57:54;;;;;;;13.77;2.85;;;19.20;99.90;;;;;;4937454;29;20582;-86
2023/09/04 09:00:29;;;;;;;12.88;2.83;;;19.20;99.90;;;;;;4938199;29;20215;-85
2023/09/04 09:03:04;;;;;;;12.00;2.60;;;19.20;99.90;;;;;;4937544;29;20282;-86
2023/09/04 09:05:37;;;;;;;11.52;2.50;;;19.10;99.90;;;;;;4939099;29;20208;-85
2023/09/04 09:08:09;;;;;;;9.63;2.60;;;19.20;99.90;;;;;;4945821;29;20748;-86
2023/09/04 09:10:40;;;;;;;8.15;2.67;;;19.20;99.90;;;;;;4949755;29;20198;-86
2023/09/04 09:13:15;;;;;;;10.18;2.13;;;19.20;99.90;;;;;;4959765;29;20287;-86
2023/09/04 09:15:46;;;;;;;11.15;2.55;;;19.20;99.90;;;;;;4955371;29;20200;-86
2023/09/04 09:18:38;;;;;;;11.40;2.28;;;19.30;99.90;;;;;;4968598;28;20188;-86
2023/09/04 09:21:26;;;;;;;10.55;2.72;;;19.30;99.90;;;;;;4935571;29;20679;-84
2023/09/04 09:24:17;;;;;;;14.63;2.55;;;19.30;99.90;;;;;;4935527;29;20211;-86
2023/09/04 09:26:50;;;;;;;13.32;2.45;;;19.20;99.90;;;;;;4947946;29;20203;-85
2023/09/04 09:29:26;;;;;;;12.60;2.33;;;19.20;99.90;;;;;;4953425;29;20188;-86
2023/09/04 09:31:58;;;;;;;15.80;3.00;;;19.20;99.90;;;;;;4962497;28;20239;-84
2023/09/04 09:34:35;;;;;;;11.98;2.60;;;19.30;99.90;;;;;;4950688;28;20582;-85
2023/09/04 09:37:06;;;;;;;12.32;2.95;;;19.30;99.90;;;;;;4933923;29;20219;-86
2023/09/04 09:39:37;;;;;;;12.50;2.70;;;19.20;99.90;;;;;;4934320;29;20195;-86
2023/09/04 09:42:08;;;;;;;13.30;3.15;;;19.20;99.90;;;;;;4936386;29;20208;-86
2023/09/04 09:44:41;;;;;;;11.52;2.70;;;19.20;99.90;;;;;;4935148;29;20663;-85
2023/09/04 09:47:13;;;;;;;12.73;3.08;;;19.10;99.90;;;;;;4949434;29;20238;-86
2023/09/04 09:49:44;;;;;;;9.38;2.20;;;19.10;99.90;;;;;;4940890;29;20203;-85
2023/09/04 09:52:15;;;;;;;11.50;2.75;;;19.10;99.90;;;;;;4937493;29;20203;-87
2023/09/04 09:54:47;;;;;;;11.52;2.38;;;19.10;99.90;;;;;;4946722;28;20232;-86
2023/09/04 09:57:19;;;;;;;14.85;2.90;;;19.10;99.90;;;;;;4956173;29;20269;-87
2023/09/04 09:59:52;;;;;;;12.07;2.70;;;19.10;99.90;;;;;;4956178;29;20207;-86
2023/09/04 10:02:24;;;;;;;12.50;2.70;;;19.10;99.90;;;;;;4956010;29;20829;-86
2023/09/04 10:04:55;;;;;;;8.55;2.30;;;19.10;99.90;;;;;;4956723;29;20218;-86
2023/09/04 10:07:30;;;;;;;11.48;2.70;;;19.10;99.90;;;;;;4947872;29;20231;-85
2023/09/04 10:10:05;;;;;;;12.38;2.70;;;19.10;99.90;;;;;;4939161;29;20197;-85
2023/09/04 10:12:38;;;;;;;14.98;2.67;;;19.10;99.90;;;;;;4937417;29;20212;-86
2023/09/04 10:15:12;;;;;;;12.23;2.50;;;19.10;99.90;;;;;;4940983;29;20204;-85
2023/09/04 10:17:48;;;;;;;15.68;4.18;;;19.10;99.90;;;;;;4955141;28;20198;-84
2023/09/04 10:20:19;;;;;;;14.50;4.60;;;19.10;99.90;;;;;;4956276;29;20204;-85
2023/09/04 10:23:03;;;;;;;16.80;4.43;;;19.10;99.90;;;;;;4947031;29;20216;-87
2023/09/04 10:25:44;;;;;;;15.85;3.50;;;19.10;99.90;;;;;;4941589;29;20197;-86
2023/09/04 10:28:35;;;;;;;13.20;2.80;;;19.10;99.90;;;;;;4956639;29;20231;-87
2023/09/04 10:31:08;;;;;;;16.85;2.97;;;19.10;99.90;;;;;;4956395;29;20203;-87
2023/09/04 10:33:41;;;;;;;12.43;2.70;;;19.10;99.90;;;;;;4959969;29;20203;-87
2023/09/04 10:36:19;;;;;;;13.68;2.83;;;19.10;99.90;;;;;;4978942;28;20256;-87
2023/09/04 10:38:51;;;;;;;16.98;3.15;;;19.20;99.90;;;;;;4965864;29;20231;-88
2023/09/04 10:41:28;;;;;;;12.88;3.25;;;19.10;99.90;;;;;;4947348;28;20380;-87
2023/09/04 10:43:59;;;;;;;12.88;3.08;;;19.10;99.90;;;;;;4942431;29;20283;-88
2023/09/04 10:46:32;;;;;;;17.00;3.40;;;19.20;99.90;;;;;;4938472;29;20266;-88
2023/09/04 10:49:02;;;;;;;12.90;2.58;;;19.20;99.90;;;;;;4941267;29;20226;-87
2023/09/04 10:51:37;;;;;;;10.55;2.90;;;19.20;99.90;;;;;;4956187;29;20188;-87
2023/09/04 10:54:28;;;;;;;16.42;2.92;;;19.20;99.90;;;;;;4941222;29;20310;-87
2023/09/04 10:57:00;;;;;;;10.98;2.70;;;19.10;99.90;;;;;;4955761;28;20290;-86
2023/09/04 10:59:31;;;;;;;15.05;3.60;;;19.10;99.90;;;;;;4957391;29;20192;-87
2023/09/04 11:02:28;;;;;;;13.43;3.58;;;19.10;99.90;;;;;;4961214;29;20192;-86
2023/09/04 11:05:00;;;;;;;14.73;3.10;;;19.10;99.90;;;;;;4967758;29;20258;-86
2023/09/04 11:07:35;;;;;;;13.30;3.10;;;19.10;99.90;;;;;;4955347;29;20220;-87
2023/09/04 11:10:39;;;;;;;17.15;3.30;;;19.10;99.90;;;;;;4945235;29;20322;-86
2023/09/04 11:13:13;;;;;;;11.70;3.20;;;19.10;99.90;;;;;;4935996;29;20208;-88
2023/09/04 11:15:46;;;;;;;14.95;3.92;;;19.10;99.90;;;;;;4937030;29;20195;-85
2023/09/04 11:18:21;;;;;;;13.70;3.28;;;19.10;99.90;;;;;;4946098;28;20224;-83
2023/09/04 11:20:58;;;;;;;13.88;3.45;;;19.10;99.90;;;;;;4955049;29;20192;-84
2023/09/04 11:23:29;;;;;;;12.60;3.58;;;19.00;99.90;;;;;;4948180;29;20204;-86
2023/09/04 11:26:00;;;;;;;20.48;4.35;;;19.00;99.90;;;;;;4937396;29;20193;-86
2023/09/04 11:28:31;;;;;;;16.30;3.50;;;19.00;99.90;;;;;;4940249;28;20246;-86
2023/09/04 11:31:02;;;;;;;12.00;3.20;;;19.00;99.90;;;;;;4955591;29;20184;-86
2023/09/04 11:33:35;;;;;;;12.13;2.92;;;19.00;99.90;;;;;;4936495;29;20207;-86
2023/09/04 11:36:07;;;;;;;13.32;3.72;;;18.90;99.90;;;;;;4941593;29;20184;-86
2023/09/04 11:38:38;;;;;;;16.08;3.33;;;18.90;99.90;;;;;;4964254;28;20225;-85
2023/09/04 11:41:18;;;;;;;13.98;3.58;;;18.90;99.90;;;;;;4947999;29;20255;-86
2023/09/04 11:43:49;;;;;;;15.27;3.88;;;18.90;99.90;;;;;;4948869;29;20203;-85
2023/09/04 11:46:20;;;;;;;12.32;3.58;;;18.90;99.90;;;;;;4950362;29;20189;-87
2023/09/04 11:48:54;;;;;;;16.90;3.65;;;18.90;99.90;;;;;;4948454;29;20238;-85
2023/09/04 11:51:25;;;;;;;15.20;3.50;;;18.80;99.90;;;;;;4954357;29;20207;-85
2023/09/04 11:53:58;;;;;;;14.20;3.42;;;18.70;99.90;;;;;;4953835;28;20188;-84
2023/09/04 11:56:29;;;;;;;16.45;3.55;;;18.70;99.90;;;;;;4948375;29;20200;-85
2023/09/04 11:59:02;;;;;;;11.40;3.03;;;18.60;99.90;;;;;;4955227;29;20188;-84
2023/09/04 12:01:32;;;;;;;11.02;3.03;;;18.60;99.90;;;;;;4942495;28;20193;-85
2023/09/04 12:04:06;;;;;;;13.38;3.22;;;18.50;99.90;;;;;;4946595;28;20200;-85
2023/09/04 12:06:37;;;;;;;12.80;3.13;;;18.50;99.90;;;;;;4945974;28;20214;-86
2023/09/04 12:09:08;;;;;;;15.88;3.83;;;18.50;99.90;;;;;;4945940;28;20222;-87
2023/09/04 12:11:38;;;;;;;12.98;3.42;;;18.50;99.90;;;;;;4945829;28;20199;-86
2023/09/04 12:14:13;;;;;;;11.20;2.97;;;18.40;99.90;;;;;;4946019;28;20600;-88
2023/09/04 12:16:47;;;;;;;11.48;3.20;;;18.40;99.90;;;;;;4947447;28;20206;-87
2023/09/04 12:19:23;;;;;;;12.35;3.00;;;18.40;99.90;;;;;;4943809;28;20305;-83
2023/09/04 12:21:54;;;;;;;13.57;2.97;;;18.40;99.90;;;;;;4943292;28;20207;-83
2023/09/04 12:24:25;;;;;;;12.63;3.42;;;18.30;99.90;;;;;;4943339;28;20566;-84
2023/09/04 12:26:56;;;;;;;9.40;2.67;;;18.30;99.90;;;;;;4943169;28;20203;-87
2023/09/04 12:29:27;;;;;;;9.80;2.75;;;18.20;99.90;;;;;;4946573;28;20232;-87
2023/09/04 12:31:59;;;;;;;11.88;3.00;;;18.20;99.90;;;;;;4944073;28;20205;-87
2023/09/04 12:34:32;;;;;;;10.00;3.00;;;18.20;99.90;;;;;;4948453;28;20198;-86
2023/09/04 12:37:04;;;;;;;10.77;4.15;;;18.20;99.90;;;;;;4947818;28;20199;-88
2023/09/04 12:39:35;;;;;;;14.65;5.28;;;18.10;99.90;;;;;;4961150;28;20227;-86
2023/09/04 12:42:06;;;;;;;17.77;7.22;;;18.10;99.90;;;;;;4979329;28;20220;-85
2023/09/04 12:44:37;;;;;;;13.25;4.97;;;18.10;99.90;;;;;;4937830;29;20563;-87
2023/09/04 12:47:10;;;;;;;13.60;4.55;;;18.10;99.90;;;;;;4960364;28;20192;-87
2023/09/04 12:49:42;;;;;;;14.20;4.55;;;18.10;99.90;;;;;;4953597;29;20227;-87
2023/09/04 12:52:13;;;;;;;21.88;7.88;;;18.10;99.90;;;;;;4954169;29;20204;-87
2023/09/04 12:54:45;;;;;;;15.50;5.72;;;18.10;99.90;;;;;;4937760;29;20236;-88
2023/09/04 12:57:16;;;;;;;12.48;4.18;;;18.00;99.90;;;;;;4942078;29;20220;-87
2023/09/04 12:59:48;;;;;;;12.20;4.22;;;18.00;99.90;;;;;;4941495;29;20208;-86
2023/09/04 13:02:19;;;;;;;12.45;4.97;;;17.90;99.90;;;;;;4951659;29;20255;-87
2023/09/04 13:04:54;;;;;;;13.45;5.32;;;17.90;99.90;;;;;;4954705;29;20207;-87
2023/09/04 13:07:25;;;;;;;11.70;4.75;;;17.90;99.90;;;;;;4953537;29;20199;-87
2023/09/04 13:09:57;;;;;;;11.55;4.15;;;17.90;99.90;;;;;;4950093;29;20212;-88